sensor_id;sensor_type;location;lat;lon;timestamp;temperature;humidity
21815;DHT22;11069;48.988;8.450;2023-03-04T00:00:44;-0.50;99.90
21815;DHT22;11069;48.988;8.450;2023-03-04T00:03:12;-0.50;99.90
21815;DHT22;11069;48.988;8.450;2023-03-04T00:05:40;-0.50;99.90
21815;DHT22;11069;48.988;8.450;2023-03-04T00:08:05;-0.50;99.90
21815;DHT22;11069;48.988;8.450;2023-03-04T00:10:31;-0.60;99.90
21815;DHT22;11069;48.988;8.450;2023-03-04T00:12:56;-0.60;99.90
21815;DHT22;11069;48.988;8.450;2023-03-04T00:15:22;-0.70;99.90
21815;DHT22;11069;48.988;8.450;2023-03-04T00:17:47;-0.70;99.90
21815;DHT22;11069;48.988;8.450;2023-03-04T00:20:13;-0.70;99.90
21815;DHT22;11069;48.988;8.450;2023-03-04T00:22:39;-0.70;99.90
21815;DHT22;11069;48.988;8.450;2023-03-04T00:25:05;-0.70;99.90
21815;DHT22;11069;48.988;8.450;2023-03-04T00:27:30;-0.80;99.90
21815;DHT22;11069;48.988;8.450;2023-03-04T00:29:56;-0.90;99.90
21815;DHT22;11069;48.988;8.450;2023-03-04T00:32:22;-0.80;99.90
21815;DHT22;11069;48.988;8.450;2023-03-04T00:34:48;-0.70;99.90
21815;DHT22;11069;48.988;8.450;2023-03-04T00:37:13;-0.80;99.90
21815;DHT22;11069;48.988;8.450;2023-03-04T00:39:39;-0.80;99.90
21815;DHT22;11069;48.988;8.450;2023-03-04T00:42:05;-1.00;99.90
21815;DHT22;11069;48.988;8.450;2023-03-04T00:44:30;-1.10;99.90
21815;DHT22;11069;48.988;8.450;2023-03-04T00:46:56;-1.10;99.90
21815;DHT22;11069;48.988;8.450;2023-03-04T00:49:21;-1.10;99.90
21815;DHT22;11069;48.988;8.450;2023-03-04T00:51:47;-1.20;99.90
21815;DHT22;11069;48.988;8.450;2023-03-04T00:54:13;-1.10;99.90
21815;DHT22;11069;48.988;8.450;2023-03-04T00:56:38;-1.20;99.90
21815;DHT22;11069;48.988;8.450;2023-03-04T00:59:04;-1.10;99.90
21815;DHT22;11069;48.988;8.450;2023-03-04T01:01:29;-1.10;99.90
21815;DHT22;11069;48.988;8.450;2023-03-04T01:03:55;-1.10;99.90
21815;DHT22;11069;48.988;8.450;2023-03-04T01:06:20;-1.20;99.90
21815;DHT22;11069;48.988;8.450;2023-03-04T01:08:46;-1.10;99.90
21815;DHT22;11069;48.988;8.450;2023-03-04T01:11:12;-1.20;99.90
21815;DHT22;11069;48.988;8.450;2023-03-04T01:13:37;-1.20;99.90
21815;DHT22;11069;48.988;8.450;2023-03-04T01:16:04;-1.20;99.90
21815;DHT22;11069;48.988;8.450;2023-03-04T01:18:30;-1.10;99.90
21815;DHT22;11069;48.988;8.450;2023-03-04T01:20:55;-1.10;99.90
21815;DHT22;11069;48.988;8.450;2023-03-04T01:23:21;-1.20;99.90
21815;DHT22;11069;48.988;8.450;2023-03-04T01:25:47;-1.20;99.90
21815;DHT22;11069;48.988;8.450;2023-03-04T01:28:13;-1.20;99.90
21815;DHT22;11069;48.988;8.450;2023-03-04T01:30:38;-1.10;99.90
21815;DHT22;11069;48.988;8.450;2023-03-04T01:33:04;-1.30;99.90
21815;DHT22;11069;48.988;8.450;2023-03-04T01:35:29;-1.30;99.90
21815;DHT22;11069;48.988;8.450;2023-03-04T01:37:55;-1.30;99.90
21815;DHT22;11069;48.988;8.450;2023-03-04T01:40:21;-1.40;99.90
21815;DHT22;11069;48.988;8.450;2023-03-04T01:42:46;-1.40;99.90
21815;DHT22;11069;48.988;8.450;2023-03-04T01:45:17;-1.40;99.90
21815;DHT22;11069;48.988;8.450;2023-03-04T01:47:46;-1.50;99.90
21815;DHT22;11069;48.988;8.450;2023-03-04T01:50:33;-1.50;99.90
21815;DHT22;11069;48.988;8.450;2023-03-04T01:53:01;-1.50;99.90
21815;DHT22;11069;48.988;8.450;2023-03-04T01:55:28;-1.60;99.90
21815;DHT22;11069;48.988;8.450;2023-03-04T01:57:54;-1.60;99.90
21815;DHT22;11069;48.988;8.450;2023-03-04T02:00:30;-1.60;99.90
21815;DHT22;11069;48.988;8.450;2023-03-04T02:03:15;-1.60;99.90
21815;DHT22;11069;48.988;8.450;2023-03-04T02:05:46;-1.60;99.90
21815;DHT22;11069;48.988;8.450;2023-03-04T02:08:13;-1.70;99.90
21815;DHT22;11069;48.988;8.450;2023-03-04T02:10:41;-1.70;99.90
21815;DHT22;11069;48.988;8.450;2023-03-04T02:13:07;-1.70;99.90
21815;DHT22;11069;48.988;8.450;2023-03-04T02:15:33;-1.80;99.90
21815;DHT22;11069;48.988;8.450;2023-03-04T02:17:59;-1.80;99.90
21815;DHT22;11069;48.988;8.450;2023-03-04T02:21:39;-1.70;99.90
21815;DHT22;11069;48.988;8.450;2023-03-04T02:23:48;-1.80;99.90
21815;DHT22;11069;48.988;8.450;2023-03-04T02:26:21;-1.80;99.90
21815;DHT22;11069;48.988;8.450;2023-03-04T02:28:48;-1.80;99.90
21815;DHT22;11069;48.988;8.450;2023-03-04T02:31:25;-1.80;99.90
21815;DHT22;11069;48.988;8.450;2023-03-04T02:33:53;-1.80;99.90
21815;DHT22;11069;48.988;8.450;2023-03-04T02:36:21;-1.90;99.90
21815;DHT22;11069;48.988;8.450;2023-03-04T02:38:49;-1.80;99.90
21815;DHT22;11069;48.988;8.450;2023-03-04T02:41:18;-1.80;99.90
21815;DHT22;11069;48.988;8.450;2023-03-04T02:43:46;-1.80;99.90
21815;DHT22;11069;48.988;8.450;2023-03-04T02:46:12;-1.80;99.90
21815;DHT22;11069;48.988;8.450;2023-03-04T02:48:38;-1.70;99.90
21815;DHT22;11069;48.988;8.450;2023-03-04T02:51:03;-1.80;99.90
21815;DHT22;11069;48.988;8.450;2023-03-04T02:53:29;-1.70;99.90
21815;DHT22;11069;48.988;8.450;2023-03-04T02:55:55;-1.80;99.90
21815;DHT22;11069;48.988;8.450;2023-03-04T02:58:20;-1.90;99.90
21815;DHT22;11069;48.988;8.450;2023-03-04T03:00:46;-1.80;99.90
21815;DHT22;11069;48.988;8.450;2023-03-04T03:03:12;-1.70;99.90
21815;DHT22;11069;48.988;8.450;2023-03-04T03:05:37;-1.80;99.90
21815;DHT22;11069;48.988;8.450;2023-03-04T03:08:04;-1.80;99.90
21815;DHT22;11069;48.988;8.450;2023-03-04T03:10:30;-1.90;99.90
21815;DHT22;11069;48.988;8.450;2023-03-04T03:12:55;-2.10;99.90
21815;DHT22;11069;48.988;8.450;2023-03-04T03:15:21;-2.10;99.90
21815;DHT22;11069;48.988;8.450;2023-03-04T03:17:47;-2.10;99.90
21815;DHT22;11069;48.988;8.450;2023-03-04T03:20:13;-2.10;99.90
21815;DHT22;11069;48.988;8.450;2023-03-04T03:22:39;-2.10;99.90
21815;DHT22;11069;48.988;8.450;2023-03-04T03:25:06;-2.20;99.90
21815;DHT22;11069;48.988;8.450;2023-03-04T03:27:32;-2.30;99.90
21815;DHT22;11069;48.988;8.450;2023-03-04T03:29:57;-2.20;99.90
21815;DHT22;11069;48.988;8.450;2023-03-04T03:32:23;-2.30;99.90
21815;DHT22;11069;48.988;8.450;2023-03-04T03:34:49;-2.30;99.90
21815;DHT22;11069;48.988;8.450;2023-03-04T03:37:14;-2.20;99.90
21815;DHT22;11069;48.988;8.450;2023-03-04T03:39:40;-2.20;99.90
21815;DHT22;11069;48.988;8.450;2023-03-04T03:42:05;-2.20;99.90
21815;DHT22;11069;48.988;8.450;2023-03-04T03:44:31;-2.30;99.90
21815;DHT22;11069;48.988;8.450;2023-03-04T03:46:57;-2.30;99.90
21815;DHT22;11069;48.988;8.450;2023-03-04T03:49:23;-2.40;99.90
21815;DHT22;11069;48.988;8.450;2023-03-04T03:51:48;-2.50;99.90
21815;DHT22;11069;48.988;8.450;2023-03-04T03:54:14;-2.50;99.90
21815;DHT22;11069;48.988;8.450;2023-03-04T03:56:39;-2.40;99.90
21815;DHT22;11069;48.988;8.450;2023-03-04T03:59:05;-2.40;99.90
21815;DHT22;11069;48.988;8.450;2023-03-04T04:01:31;-2.30;99.90
21815;DHT22;11069;48.988;8.450;2023-03-04T04:03:58;-2.40;99.90
21815;DHT22;11069;48.988;8.450;2023-03-04T04:06:24;-2.50;99.90
21815;DHT22;11069;48.988;8.450;2023-03-04T04:08:49;-2.60;99.90
21815;DHT22;11069;48.988;8.450;2023-03-04T04:11:15;-2.60;99.90
21815;DHT22;11069;48.988;8.450;2023-03-04T04:13:41;-2.50;99.90
21815;DHT22;11069;48.988;8.450;2023-03-04T04:16:07;-2.50;99.90
21815;DHT22;11069;48.988;8.450;2023-03-04T04:18:33;-2.50;99.90
21815;DHT22;11069;48.988;8.450;2023-03-04T04:20:59;-2.50;99.90
21815;DHT22;11069;48.988;8.450;2023-03-04T04:23:25;-2.60;99.90
21815;DHT22;11069;48.988;8.450;2023-03-04T04:25:54;-2.70;99.90
21815;DHT22;11069;48.988;8.450;2023-03-04T04:28:19;-2.50;99.90
21815;DHT22;11069;48.988;8.450;2023-03-04T04:30:45;-2.60;99.90
21815;DHT22;11069;48.988;8.450;2023-03-04T04:33:10;-2.60;99.90
21815;DHT22;11069;48.988;8.450;2023-03-04T04:35:36;-2.70;99.90
21815;DHT22;11069;48.988;8.450;2023-03-04T04:38:03;-2.60;99.90
21815;DHT22;11069;48.988;8.450;2023-03-04T04:40:29;-2.60;99.90
21815;DHT22;11069;48.988;8.450;2023-03-04T04:42:55;-2.60;99.90
21815;DHT22;11069;48.988;8.450;2023-03-04T04:45:21;-2.70;99.90
21815;DHT22;11069;48.988;8.450;2023-03-04T04:47:49;-2.70;99.90
21815;DHT22;11069;48.988;8.450;2023-03-04T04:50:15;-2.70;99.90
21815;DHT22;11069;48.988;8.450;2023-03-04T04:52:41;-2.70;99.90
21815;DHT22;11069;48.988;8.450;2023-03-04T04:55:07;-2.70;99.90
21815;DHT22;11069;48.988;8.450;2023-03-04T04:57:33;-2.70;99.90
21815;DHT22;11069;48.988;8.450;2023-03-04T04:59:58;-2.60;99.90
21815;DHT22;11069;48.988;8.450;2023-03-04T05:02:24;-2.70;99.90
21815;DHT22;11069;48.988;8.450;2023-03-04T05:04:50;-2.80;99.90
21815;DHT22;11069;48.988;8.450;2023-03-04T05:07:15;-2.80;99.90
21815;DHT22;11069;48.988;8.450;2023-03-04T05:09:41;-2.90;99.90
21815;DHT22;11069;48.988;8.450;2023-03-04T05:12:06;-2.90;99.90
21815;DHT22;11069;48.988;8.450;2023-03-04T05:14:32;-2.80;99.90
21815;DHT22;11069;48.988;8.450;2023-03-04T05:16:57;-2.80;99.90
21815;DHT22;11069;48.988;8.450;2023-03-04T05:19:23;-2.80;99.90
21815;DHT22;11069;48.988;8.450;2023-03-04T05:21:49;-2.80;99.90
21815;DHT22;11069;48.988;8.450;2023-03-04T05:24:14;-2.90;99.90
21815;DHT22;11069;48.988;8.450;2023-03-04T05:26:40;-3.00;99.90
21815;DHT22;11069;48.988;8.450;2023-03-04T05:29:06;-3.00;99.90
21815;DHT22;11069;48.988;8.450;2023-03-04T05:31:31;-3.10;99.90
21815;DHT22;11069;48.988;8.450;2023-03-04T05:33:57;-3.10;99.90
21815;DHT22;11069;48.988;8.450;2023-03-04T05:36:23;-3.00;99.90
21815;DHT22;11069;48.988;8.450;2023-03-04T05:38:48;-2.90;99.90
21815;DHT22;11069;48.988;8.450;2023-03-04T05:41:14;-2.90;99.90
21815;DHT22;11069;48.988;8.450;2023-03-04T05:43:39;-3.10;99.90
21815;DHT22;11069;48.988;8.450;2023-03-04T05:46:08;-3.10;99.90
21815;DHT22;11069;48.988;8.450;2023-03-04T05:48:36;-2.90;99.90
21815;DHT22;11069;48.988;8.450;2023-03-04T05:51:01;-3.00;99.90
21815;DHT22;11069;48.988;8.450;2023-03-04T05:53:28;-3.10;99.90
21815;DHT22;11069;48.988;8.450;2023-03-04T05:55:55;-3.10;99.90
21815;DHT22;11069;48.988;8.450;2023-03-04T05:58:23;-3.20;99.90
21815;DHT22;11069;48.988;8.450;2023-03-04T06:00:49;-3.20;99.90
21815;DHT22;11069;48.988;8.450;2023-03-04T06:03:19;-3.20;99.90
21815;DHT22;11069;48.988;8.450;2023-03-04T06:05:45;-3.10;99.90
21815;DHT22;11069;48.988;8.450;2023-03-04T06:08:11;-3.00;99.90
21815;DHT22;11069;48.988;8.450;2023-03-04T06:10:38;-3.10;99.90
21815;DHT22;11069;48.988;8.450;2023-03-04T06:13:04;-3.10;99.90
21815;DHT22;11069;48.988;8.450;2023-03-04T06:15:30;-3.10;99.90
21815;DHT22;11069;48.988;8.450;2023-03-04T06:17:56;-3.00;99.90
21815;DHT22;11069;48.988;8.450;2023-03-04T06:20:22;-3.00;99.90
21815;DHT22;11069;48.988;8.450;2023-03-04T06:22:47;-2.90;99.90
21815;DHT22;11069;48.988;8.450;2023-03-04T06:25:13;-2.90;99.90
21815;DHT22;11069;48.988;8.450;2023-03-04T06:27:38;-2.80;99.90
21815;DHT22;11069;48.988;8.450;2023-03-04T06:30:05;-2.70;99.90
21815;DHT22;11069;48.988;8.450;2023-03-04T06:32:30;-2.70;99.90
21815;DHT22;11069;48.988;8.450;2023-03-04T06:34:56;-2.50;99.90
21815;DHT22;11069;48.988;8.450;2023-03-04T06:37:22;-2.50;99.90
21815;DHT22;11069;48.988;8.450;2023-03-04T06:39:48;-2.40;99.90
21815;DHT22;11069;48.988;8.450;2023-03-04T06:42:13;-2.30;99.90
21815;DHT22;11069;48.988;8.450;2023-03-04T06:44:39;-2.20;99.90
21815;DHT22;11069;48.988;8.450;2023-03-04T06:47:05;-2.10;99.90
21815;DHT22;11069;48.988;8.450;2023-03-04T06:49:31;-1.90;99.90
21815;DHT22;11069;48.988;8.450;2023-03-04T06:51:56;-1.80;99.90
21815;DHT22;11069;48.988;8.450;2023-03-04T06:54:22;-1.60;99.90
21815;DHT22;11069;48.988;8.450;2023-03-04T06:56:48;-1.40;99.90
21815;DHT22;11069;48.988;8.450;2023-03-04T06:59:14;-1.30;99.90
21815;DHT22;11069;48.988;8.450;2023-03-04T07:01:39;-1.10;99.90
21815;DHT22;11069;48.988;8.450;2023-03-04T07:04:05;-1.00;99.90
21815;DHT22;11069;48.988;8.450;2023-03-04T07:06:30;-0.80;99.90
21815;DHT22;11069;48.988;8.450;2023-03-04T07:08:57;-0.80;99.90
21815;DHT22;11069;48.988;8.450;2023-03-04T07:11:23;-0.60;99.90
21815;DHT22;11069;48.988;8.450;2023-03-04T07:13:49;-0.50;99.90
21815;DHT22;11069;48.988;8.450;2023-03-04T07:16:18;-0.40;99.90
21815;DHT22;11069;48.988;8.450;2023-03-04T07:18:44;-0.30;99.90
21815;DHT22;11069;48.988;8.450;2023-03-04T07:21:11;-0.30;99.90
21815;DHT22;11069;48.988;8.450;2023-03-04T07:23:37;-0.20;99.90
21815;DHT22;11069;48.988;8.450;2023-03-04T07:26:03;0.00;99.90
21815;DHT22;11069;48.988;8.450;2023-03-04T07:28:29;0.00;99.90
21815;DHT22;11069;48.988;8.450;2023-03-04T07:43:11;0.30;99.90
21815;DHT22;11069;48.988;8.450;2023-03-04T07:45:37;0.90;99.90
21815;DHT22;11069;48.988;8.450;2023-03-04T07:48:03;0.90;99.90
21815;DHT22;11069;48.988;8.450;2023-03-04T07:50:28;1.00;99.90
21815;DHT22;11069;48.988;8.450;2023-03-04T07:52:54;1.10;99.90
21815;DHT22;11069;48.988;8.450;2023-03-04T07:55:19;1.20;99.90
21815;DHT22;11069;48.988;8.450;2023-03-04T07:57:46;1.30;99.90
21815;DHT22;11069;48.988;8.450;2023-03-04T08:00:14;1.40;99.90
21815;DHT22;11069;48.988;8.450;2023-03-04T08:02:40;1.40;99.90
21815;DHT22;11069;48.988;8.450;2023-03-04T08:05:06;1.20;99.90
21815;DHT22;11069;48.988;8.450;2023-03-04T08:07:32;1.20;99.90
21815;DHT22;11069;48.988;8.450;2023-03-04T08:09:58;1.30;99.90
21815;DHT22;11069;48.988;8.450;2023-03-04T08:12:25;1.30;99.90
21815;DHT22;11069;48.988;8.450;2023-03-04T08:14:51;1.50;99.90
21815;DHT22;11069;48.988;8.450;2023-03-04T08:17:17;1.80;99.90
21815;DHT22;11069;48.988;8.450;2023-03-04T08:19:43;1.80;99.90
21815;DHT22;11069;48.988;8.450;2023-03-04T08:22:08;2.00;99.90
21815;DHT22;11069;48.988;8.450;2023-03-04T08:24:34;2.20;99.90
21815;DHT22;11069;48.988;8.450;2023-03-04T08:27:00;2.40;99.90
21815;DHT22;11069;48.988;8.450;2023-03-04T08:29:26;2.50;99.90
21815;DHT22;11069;48.988;8.450;2023-03-04T08:31:53;2.60;99.90
21815;DHT22;11069;48.988;8.450;2023-03-04T08:34:22;2.80;99.90
21815;DHT22;11069;48.988;8.450;2023-03-04T08:36:49;2.90;99.90
21815;DHT22;11069;48.988;8.450;2023-03-04T08:39:16;2.90;99.90
21815;DHT22;11069;48.988;8.450;2023-03-04T08:41:42;3.10;99.90
21815;DHT22;11069;48.988;8.450;2023-03-04T08:44:08;3.30;99.90
21815;DHT22;11069;48.988;8.450;2023-03-04T08:46:38;3.30;99.90
21815;DHT22;11069;48.988;8.450;2023-03-04T08:49:04;3.40;99.90
21815;DHT22;11069;48.988;8.450;2023-03-04T08:51:30;3.50;99.90
21815;DHT22;11069;48.988;8.450;2023-03-04T08:53:56;3.60;99.90
21815;DHT22;11069;48.988;8.450;2023-03-04T08:56:22;3.70;99.90
21815;DHT22;11069;48.988;8.450;2023-03-04T08:58:47;3.80;99.90
21815;DHT22;11069;48.988;8.450;2023-03-04T09:01:13;4.10;99.90
21815;DHT22;11069;48.988;8.450;2023-03-04T09:03:40;4.20;99.90
21815;DHT22;11069;48.988;8.450;2023-03-04T09:06:07;4.40;99.90
21815;DHT22;11069;48.988;8.450;2023-03-04T09:08:33;4.50;99.90
21815;DHT22;11069;48.988;8.450;2023-03-04T09:10:59;4.70;99.90
21815;DHT22;11069;48.988;8.450;2023-03-04T09:13:26;4.90;99.90
21815;DHT22;11069;48.988;8.450;2023-03-04T09:15:52;4.90;99.90
21815;DHT22;11069;48.988;8.450;2023-03-04T09:18:19;5.00;99.90
21815;DHT22;11069;48.988;8.450;2023-03-04T09:20:45;5.20;99.90
21815;DHT22;11069;48.988;8.450;2023-03-04T09:23:11;5.30;99.90
21815;DHT22;11069;48.988;8.450;2023-03-04T09:25:38;5.60;99.90
21815;DHT22;11069;48.988;8.450;2023-03-04T09:28:04;5.60;99.90
21815;DHT22;11069;48.988;8.450;2023-03-04T09:30:30;5.80;99.90
21815;DHT22;11069;48.988;8.450;2023-03-04T09:32:56;5.60;99.90
21815;DHT22;11069;48.988;8.450;2023-03-04T09:35:22;5.60;99.90
21815;DHT22;11069;48.988;8.450;2023-03-04T09:37:47;5.70;99.90
21815;DHT22;11069;48.988;8.450;2023-03-04T09:40:20;5.80;99.90
21815;DHT22;11069;48.988;8.450;2023-03-04T09:42:49;5.60;99.90
21815;DHT22;11069;48.988;8.450;2023-03-04T09:45:19;5.00;99.90
21815;DHT22;11069;48.988;8.450;2023-03-04T09:47:48;5.30;99.90
21815;DHT22;11069;48.988;8.450;2023-03-04T09:50:16;5.40;99.90
21815;DHT22;11069;48.988;8.450;2023-03-04T09:55:41;5.70;99.90
21815;DHT22;11069;48.988;8.450;2023-03-04T10:01:10;5.30;99.90
21815;DHT22;11069;48.988;8.450;2023-03-04T10:06:07;5.20;99.90
21815;DHT22;11069;48.988;8.450;2023-03-04T10:09:03;5.40;99.90
21815;DHT22;11069;48.988;8.450;2023-03-04T10:11:34;5.30;99.90
21815;DHT22;11069;48.988;8.450;2023-03-04T10:16:59;5.40;99.90
21815;DHT22;11069;48.988;8.450;2023-03-04T10:19:56;5.40;99.90
21815;DHT22;11069;48.988;8.450;2023-03-04T10:22:36;5.50;99.90
21815;DHT22;11069;48.988;8.450;2023-03-04T10:25:25;5.60;99.90
21815;DHT22;11069;48.988;8.450;2023-03-04T10:33:20;5.70;99.90
21815;DHT22;11069;48.988;8.450;2023-03-04T10:38:53;5.50;99.90
21815;DHT22;11069;48.988;8.450;2023-03-04T10:41:21;5.40;99.90
21815;DHT22;11069;48.988;8.450;2023-03-04T10:44:34;5.20;99.90
21815;DHT22;11069;48.988;8.450;2023-03-04T10:46:39;5.10;99.90
21815;DHT22;11069;48.988;8.450;2023-03-04T10:49:05;4.90;99.90
21815;DHT22;11069;48.988;8.450;2023-03-04T10:51:31;4.80;99.90
21815;DHT22;11069;48.988;8.450;2023-03-04T10:54:10;4.70;99.90
21815;DHT22;11069;48.988;8.450;2023-03-04T10:56:42;4.80;99.90
21815;DHT22;11069;48.988;8.450;2023-03-04T11:02:25;4.80;99.90
21815;DHT22;11069;48.988;8.450;2023-03-04T11:07:21;5.00;99.90
21815;DHT22;11069;48.988;8.450;2023-03-04T11:09:47;5.00;99.90
21815;DHT22;11069;48.988;8.450;2023-03-04T11:12:15;5.00;99.90
21815;DHT22;11069;48.988;8.450;2023-03-04T11:14:49;5.00;99.90
21815;DHT22;11069;48.988;8.450;2023-03-04T11:17:25;5.00;99.90
21815;DHT22;11069;48.988;8.450;2023-03-04T11:22:34;5.00;99.90
21815;DHT22;11069;48.988;8.450;2023-03-04T11:25:10;5.00;99.90
21815;DHT22;11069;48.988;8.450;2023-03-04T11:27:46;5.10;99.90
21815;DHT22;11069;48.988;8.450;2023-03-04T11:30:28;4.80;99.90
21815;DHT22;11069;48.988;8.450;2023-03-04T11:33:21;4.80;99.90
21815;DHT22;11069;48.988;8.450;2023-03-04T11:36:03;5.00;99.90
21815;DHT22;11069;48.988;8.450;2023-03-04T11:38:35;5.20;99.90
21815;DHT22;11069;48.988;8.450;2023-03-04T11:41:11;5.10;99.90
21815;DHT22;11069;48.988;8.450;2023-03-04T11:43:41;5.20;99.90
21815;DHT22;11069;48.988;8.450;2023-03-04T11:52:15;5.50;99.90
21815;DHT22;11069;48.988;8.450;2023-03-04T11:55:19;5.40;99.90
21815;DHT22;11069;48.988;8.450;2023-03-04T12:00:42;5.20;99.90
21815;DHT22;11069;48.988;8.450;2023-03-04T12:03:26;5.40;99.90
21815;DHT22;11069;48.988;8.450;2023-03-04T12:22:44;5.10;99.90
21815;DHT22;11069;48.988;8.450;2023-03-04T12:27:57;5.20;99.90
21815;DHT22;11069;48.988;8.450;2023-03-04T12:39:19;5.40;99.90
21815;DHT22;11069;48.988;8.450;2023-03-04T12:41:53;5.40;99.90
21815;DHT22;11069;48.988;8.450;2023-03-04T12:44:21;5.20;99.90
21815;DHT22;11069;48.988;8.450;2023-03-04T12:52:37;5.50;99.90
21815;DHT22;11069;48.988;8.450;2023-03-04T12:55:11;5.50;99.90
21815;DHT22;11069;48.988;8.450;2023-03-04T12:57:38;5.50;99.90
21815;DHT22;11069;48.988;8.450;2023-03-04T13:03:13;5.90;99.90
21815;DHT22;11069;48.988;8.450;2023-03-04T13:16:44;5.90;99.90
21815;DHT22;11069;48.988;8.450;2023-03-04T13:19:50;5.80;99.90
21815;DHT22;11069;48.988;8.450;2023-03-04T13:22:33;6.00;99.90
21815;DHT22;11069;48.988;8.450;2023-03-04T13:41:23;5.70;99.90
21815;DHT22;11069;48.988;8.450;2023-03-04T13:43:54;5.60;99.90
21815;DHT22;11069;48.988;8.450;2023-03-04T13:56:30;5.70;99.90
21815;DHT22;11069;48.988;8.450;2023-03-04T13:59:29;5.70;99.90
21815;DHT22;11069;48.988;8.450;2023-03-04T14:02:02;5.70;99.90
21815;DHT22;11069;48.988;8.450;2023-03-04T14:04:34;5.60;99.90
21815;DHT22;11069;48.988;8.450;2023-03-04T14:07:15;5.70;99.90
21815;DHT22;11069;48.988;8.450;2023-03-04T14:09:53;5.70;99.90
21815;DHT22;11069;48.988;8.450;2023-03-04T14:12:19;5.90;99.90
21815;DHT22;11069;48.988;8.450;2023-03-04T14:14:53;5.80;99.90
21815;DHT22;11069;48.988;8.450;2023-03-04T14:17:24;5.60;99.90
21815;DHT22;11069;48.988;8.450;2023-03-04T14:19:51;5.50;99.90
21815;DHT22;11069;48.988;8.450;2023-03-04T14:22:27;5.60;99.90
21815;DHT22;11069;48.988;8.450;2023-03-04T14:27:32;5.50;99.90
21815;DHT22;11069;48.988;8.450;2023-03-04T14:30:04;5.50;99.90
21815;DHT22;11069;48.988;8.450;2023-03-04T14:32:31;5.50;99.90
21815;DHT22;11069;48.988;8.450;2023-03-04T14:35:01;5.50;99.90
21815;DHT22;11069;48.988;8.450;2023-03-04T14:40:02;5.40;99.90
21815;DHT22;11069;48.988;8.450;2023-03-04T14:42:43;5.50;99.90
21815;DHT22;11069;48.988;8.450;2023-03-04T14:45:14;5.60;99.90
21815;DHT22;11069;48.988;8.450;2023-03-04T14:47:42;5.60;99.90
21815;DHT22;11069;48.988;8.450;2023-03-04T14:50:14;5.60;99.90
21815;DHT22;11069;48.988;8.450;2023-03-04T14:52:45;5.60;99.90
21815;DHT22;11069;48.988;8.450;2023-03-04T14:57:41;5.70;99.90
21815;DHT22;11069;48.988;8.450;2023-03-04T15:00:32;5.70;99.90
21815;DHT22;11069;48.988;8.450;2023-03-04T15:03:21;5.80;99.90
21815;DHT22;11069;48.988;8.450;2023-03-04T15:05:49;5.80;99.90
21815;DHT22;11069;48.988;8.450;2023-03-04T15:08:21;5.70;99.90
21815;DHT22;11069;48.988;8.450;2023-03-04T15:10:57;5.70;99.90
21815;DHT22;11069;48.988;8.450;2023-03-04T15:13:44;5.70;99.90
21815;DHT22;11069;48.988;8.450;2023-03-04T15:16:12;5.70;99.90
21815;DHT22;11069;48.988;8.450;2023-03-04T15:18:53;5.60;99.90
21815;DHT22;11069;48.988;8.450;2023-03-04T15:23:45;5.60;99.90
21815;DHT22;11069;48.988;8.450;2023-03-04T15:26:11;5.60;99.90
21815;DHT22;11069;48.988;8.450;2023-03-04T15:28:39;5.50;99.90
21815;DHT22;11069;48.988;8.450;2023-03-04T15:31:17;5.50;99.90
21815;DHT22;11069;48.988;8.450;2023-03-04T15:33:44;5.50;99.90
21815;DHT22;11069;48.988;8.450;2023-03-04T15:36:20;5.40;99.90
21815;DHT22;11069;48.988;8.450;2023-03-04T15:38:49;5.40;99.90
21815;DHT22;11069;48.988;8.450;2023-03-04T15:41:33;5.50;99.90
21815;DHT22;11069;48.988;8.450;2023-03-04T15:43:59;5.60;99.90
21815;DHT22;11069;48.988;8.450;2023-03-04T15:46:24;5.60;99.90
21815;DHT22;11069;48.988;8.450;2023-03-04T15:48:50;5.60;99.90
21815;DHT22;11069;48.988;8.450;2023-03-04T15:51:20;5.60;99.90
21815;DHT22;11069;48.988;8.450;2023-03-04T15:53:52;5.60;99.90
21815;DHT22;11069;48.988;8.450;2023-03-04T15:56:22;5.60;99.90
21815;DHT22;11069;48.988;8.450;2023-03-04T15:59:12;5.50;99.90
21815;DHT22;11069;48.988;8.450;2023-03-04T16:01:38;5.40;99.90
21815;DHT22;11069;48.988;8.450;2023-03-04T16:04:04;5.50;99.90
21815;DHT22;11069;48.988;8.450;2023-03-04T16:06:31;5.50;99.90
21815;DHT22;11069;48.988;8.450;2023-03-04T16:08:57;5.50;99.90
21815;DHT22;11069;48.988;8.450;2023-03-04T16:11:26;5.40;99.90
21815;DHT22;11069;48.988;8.450;2023-03-04T16:13:52;5.30;99.90
21815;DHT22;11069;48.988;8.450;2023-03-04T16:16:18;5.20;99.90
21815;DHT22;11069;48.988;8.450;2023-03-04T16:18:44;5.30;99.90
21815;DHT22;11069;48.988;8.450;2023-03-04T16:21:21;5.20;99.90
21815;DHT22;11069;48.988;8.450;2023-03-04T16:23:50;5.20;99.90
21815;DHT22;11069;48.988;8.450;2023-03-04T16:26:19;5.10;99.90
21815;DHT22;11069;48.988;8.450;2023-03-04T16:28:44;5.00;99.90
21815;DHT22;11069;48.988;8.450;2023-03-04T16:31:12;5.00;99.90
21815;DHT22;11069;48.988;8.450;2023-03-04T16:33:38;4.90;99.90
21815;DHT22;11069;48.988;8.450;2023-03-04T16:36:13;4.90;99.90
21815;DHT22;11069;48.988;8.450;2023-03-04T16:38:39;4.80;99.90
21815;DHT22;11069;48.988;8.450;2023-03-04T16:41:10;4.70;99.90
21815;DHT22;11069;48.988;8.450;2023-03-04T16:43:38;4.70;99.90
21815;DHT22;11069;48.988;8.450;2023-03-04T16:46:04;4.80;99.90
21815;DHT22;11069;48.988;8.450;2023-03-04T16:48:29;4.80;99.90
21815;DHT22;11069;48.988;8.450;2023-03-04T16:50:55;4.80;99.90
21815;DHT22;11069;48.988;8.450;2023-03-04T16:53:34;4.70;99.90
21815;DHT22;11069;48.988;8.450;2023-03-04T16:56:04;4.70;99.90
21815;DHT22;11069;48.988;8.450;2023-03-04T16:58:30;4.70;99.90
21815;DHT22;11069;48.988;8.450;2023-03-04T17:00:55;4.60;99.90
21815;DHT22;11069;48.988;8.450;2023-03-04T17:03:21;4.60;99.90
21815;DHT22;11069;48.988;8.450;2023-03-04T17:05:47;4.60;99.90
21815;DHT22;11069;48.988;8.450;2023-03-04T17:08:12;4.60;99.90
21815;DHT22;11069;48.988;8.450;2023-03-04T17:10:38;4.70;99.90
21815;DHT22;11069;48.988;8.450;2023-03-04T17:13:04;4.70;99.90
21815;DHT22;11069;48.988;8.450;2023-03-04T17:15:30;4.60;99.90
21815;DHT22;11069;48.988;8.450;2023-03-04T17:17:56;4.60;99.90
21815;DHT22;11069;48.988;8.450;2023-03-04T17:20:21;4.60;99.90
21815;DHT22;11069;48.988;8.450;2023-03-04T17:22:48;4.60;99.90
21815;DHT22;11069;48.988;8.450;2023-03-04T17:25:14;4.50;99.90
21815;DHT22;11069;48.988;8.450;2023-03-04T17:27:40;4.40;99.90
21815;DHT22;11069;48.988;8.450;2023-03-04T17:30:07;4.50;99.90
21815;DHT22;11069;48.988;8.450;2023-03-04T17:32:32;4.40;99.90
21815;DHT22;11069;48.988;8.450;2023-03-04T17:34:58;4.40;99.90
21815;DHT22;11069;48.988;8.450;2023-03-04T17:37:24;4.40;99.90
21815;DHT22;11069;48.988;8.450;2023-03-04T17:39:50;4.40;99.90
21815;DHT22;11069;48.988;8.450;2023-03-04T17:42:16;4.30;99.90
21815;DHT22;11069;48.988;8.450;2023-03-04T17:44:42;4.30;99.90
21815;DHT22;11069;48.988;8.450;2023-03-04T17:47:09;4.40;99.90
21815;DHT22;11069;48.988;8.450;2023-03-04T17:49:35;4.40;99.90
21815;DHT22;11069;48.988;8.450;2023-03-04T17:52:02;4.40;99.90
21815;DHT22;11069;48.988;8.450;2023-03-04T17:54:28;4.40;99.90
21815;DHT22;11069;48.988;8.450;2023-03-04T17:56:54;4.40;99.90
21815;DHT22;11069;48.988;8.450;2023-03-04T17:59:19;4.40;99.90
21815;DHT22;11069;48.988;8.450;2023-03-04T18:01:45;4.40;99.90